sensor_id;sensor_type;location;lat;lon;timestamp;temperature;humidity
45339;DHT22;31071;51.478;5.710;2023-11-19T00:01:49;14.10;99.90
45339;DHT22;31071;51.478;5.710;2023-11-19T00:04:19;12.80;99.90
45339;DHT22;31071;51.478;5.710;2023-11-19T00:06:44;12.90;99.90
45339;DHT22;31071;51.478;5.710;2023-11-19T00:09:10;12.90;99.90
45339;DHT22;31071;51.478;5.710;2023-11-19T00:11:37;13.00;99.90
45339;DHT22;31071;51.478;5.710;2023-11-19T00:14:03;12.90;99.90
45339;DHT22;31071;51.478;5.710;2023-11-19T00:16:34;12.90;99.90
45339;DHT22;31071;51.478;5.710;2023-11-19T00:19:00;12.90;99.90
45339;DHT22;31071;51.478;5.710;2023-11-19T00:21:26;12.90;99.90
45339;DHT22;31071;51.478;5.710;2023-11-19T00:23:54;12.90;99.90
45339;DHT22;31071;51.478;5.710;2023-11-19T00:26:23;12.90;99.90
45339;DHT22;31071;51.478;5.710;2023-11-19T00:28:49;12.90;99.90
45339;DHT22;31071;51.478;5.710;2023-11-19T00:31:14;12.90;99.90
45339;DHT22;31071;51.478;5.710;2023-11-19T00:33:40;12.90;99.90
45339;DHT22;31071;51.478;5.710;2023-11-19T00:36:06;13.00;99.90
45339;DHT22;31071;51.478;5.710;2023-11-19T00:38:32;14.60;99.90
45339;DHT22;31071;51.478;5.710;2023-11-19T00:40:58;13.00;99.90
45339;DHT22;31071;51.478;5.710;2023-11-19T00:43:23;13.00;99.90
45339;DHT22;31071;51.478;5.710;2023-11-19T00:45:49;13.00;99.90
45339;DHT22;31071;51.478;5.710;2023-11-19T00:48:16;13.10;99.90
45339;DHT22;31071;51.478;5.710;2023-11-19T00:50:43;13.10;99.90
45339;DHT22;31071;51.478;5.710;2023-11-19T00:53:10;13.10;99.90
45339;DHT22;31071;51.478;5.710;2023-11-19T00:55:36;14.70;99.90
45339;DHT22;31071;51.478;5.710;2023-11-19T00:58:05;13.10;99.90
45339;DHT22;31071;51.478;5.710;2023-11-19T01:00:30;13.10;99.90
45339;DHT22;31071;51.478;5.710;2023-11-19T01:02:57;13.10;99.90
45339;DHT22;31071;51.478;5.710;2023-11-19T01:05:23;13.20;99.90
45339;DHT22;31071;51.478;5.710;2023-11-19T01:07:49;13.20;99.90
45339;DHT22;31071;51.478;5.710;2023-11-19T01:10:17;13.10;99.90
45339;DHT22;31071;51.478;5.710;2023-11-19T01:12:44;13.50;99.90
45339;DHT22;31071;51.478;5.710;2023-11-19T01:15:10;13.10;99.90
45339;DHT22;31071;51.478;5.710;2023-11-19T01:17:39;14.30;99.90
45339;DHT22;31071;51.478;5.710;2023-11-19T01:20:05;13.10;99.90
45339;DHT22;31071;51.478;5.710;2023-11-19T01:22:37;13.10;99.90
45339;DHT22;31071;51.478;5.710;2023-11-19T01:25:03;13.10;99.90
45339;DHT22;31071;51.478;5.710;2023-11-19T01:27:30;13.00;99.90
45339;DHT22;31071;51.478;5.710;2023-11-19T01:30:00;15.70;99.90
45339;DHT22;31071;51.478;5.710;2023-11-19T01:32:29;13.10;99.90
45339;DHT22;31071;51.478;5.710;2023-11-19T01:34:54;13.00;99.90
45339;DHT22;31071;51.478;5.710;2023-11-19T01:37:29;13.10;99.90
45339;DHT22;31071;51.478;5.710;2023-11-19T01:39:54;14.10;99.90
45339;DHT22;31071;51.478;5.710;2023-11-19T01:42:20;14.40;99.90
45339;DHT22;31071;51.478;5.710;2023-11-19T01:44:59;13.80;99.90
45339;DHT22;31071;51.478;5.710;2023-11-19T01:47:29;13.10;99.90
45339;DHT22;31071;51.478;5.710;2023-11-19T01:49:56;13.00;99.90
45339;DHT22;31071;51.478;5.710;2023-11-19T01:52:22;13.00;99.90
45339;DHT22;31071;51.478;5.710;2023-11-19T01:54:50;13.60;99.90
45339;DHT22;31071;51.478;5.710;2023-11-19T01:57:16;13.10;99.90
45339;DHT22;31071;51.478;5.710;2023-11-19T01:59:42;13.10;99.90
45339;DHT22;31071;51.478;5.710;2023-11-19T02:02:09;13.00;99.90
45339;DHT22;31071;51.478;5.710;2023-11-19T02:04:34;13.50;99.90
45339;DHT22;31071;51.478;5.710;2023-11-19T02:07:00;13.00;99.90
45339;DHT22;31071;51.478;5.710;2023-11-19T02:09:26;13.00;99.90
45339;DHT22;31071;51.478;5.710;2023-11-19T02:11:53;13.00;99.90
45339;DHT22;31071;51.478;5.710;2023-11-19T02:14:25;13.00;99.90
45339;DHT22;31071;51.478;5.710;2023-11-19T02:16:58;13.00;99.90
45339;DHT22;31071;51.478;5.710;2023-11-19T02:19:24;13.10;99.90
45339;DHT22;31071;51.478;5.710;2023-11-19T02:21:49;13.00;99.90
45339;DHT22;31071;51.478;5.710;2023-11-19T02:24:17;12.90;99.90
45339;DHT22;31071;51.478;5.710;2023-11-19T02:26:57;11.10;99.90
45339;DHT22;31071;51.478;5.710;2023-11-19T02:29:24;12.90;99.90
45339;DHT22;31071;51.478;5.710;2023-11-19T02:31:50;14.50;99.90
45339;DHT22;31071;51.478;5.710;2023-11-19T02:34:16;14.60;99.90
45339;DHT22;31071;51.478;5.710;2023-11-19T02:36:42;14.00;99.90
45339;DHT22;31071;51.478;5.710;2023-11-19T02:39:08;12.80;99.90
45339;DHT22;31071;51.478;5.710;2023-11-19T02:41:37;13.90;99.90
45339;DHT22;31071;51.478;5.710;2023-11-19T02:44:05;11.50;99.90
45339;DHT22;31071;51.478;5.710;2023-11-19T02:46:31;12.60;99.90
45339;DHT22;31071;51.478;5.710;2023-11-19T02:48:57;12.70;99.90
45339;DHT22;31071;51.478;5.710;2023-11-19T02:51:23;12.70;99.90
45339;DHT22;31071;51.478;5.710;2023-11-19T02:53:49;12.70;99.90
45339;DHT22;31071;51.478;5.710;2023-11-19T02:56:15;14.30;99.90
45339;DHT22;31071;51.478;5.710;2023-11-19T02:58:45;13.10;99.90
45339;DHT22;31071;51.478;5.710;2023-11-19T03:01:12;14.10;99.90
45339;DHT22;31071;51.478;5.710;2023-11-19T03:03:48;12.60;99.90
45339;DHT22;31071;51.478;5.710;2023-11-19T03:06:19;14.30;99.90
45339;DHT22;31071;51.478;5.710;2023-11-19T03:08:47;12.60;99.90
45339;DHT22;31071;51.478;5.710;2023-11-19T03:11:13;12.50;99.90
45339;DHT22;31071;51.478;5.710;2023-11-19T03:13:39;12.50;99.90
45339;DHT22;31071;51.478;5.710;2023-11-19T03:16:05;13.50;99.90
45339;DHT22;31071;51.478;5.710;2023-11-19T03:18:31;12.40;99.90
45339;DHT22;31071;51.478;5.710;2023-11-19T03:20:58;12.40;99.90
45339;DHT22;31071;51.478;5.710;2023-11-19T03:23:24;12.40;99.90
45339;DHT22;31071;51.478;5.710;2023-11-19T03:25:53;12.80;99.90
45339;DHT22;31071;51.478;5.710;2023-11-19T03:28:19;12.50;99.90
45339;DHT22;31071;51.478;5.710;2023-11-19T03:30:45;12.30;99.90
45339;DHT22;31071;51.478;5.710;2023-11-19T03:33:11;12.50;99.90
45339;DHT22;31071;51.478;5.710;2023-11-19T03:35:37;12.30;99.90
45339;DHT22;31071;51.478;5.710;2023-11-19T03:38:03;12.30;99.90
45339;DHT22;31071;51.478;5.710;2023-11-19T03:40:29;12.30;99.90
45339;DHT22;31071;51.478;5.710;2023-11-19T03:42:58;12.30;99.90
45339;DHT22;31071;51.478;5.710;2023-11-19T03:45:24;12.30;99.90
45339;DHT22;31071;51.478;5.710;2023-11-19T03:47:51;12.30;99.90
45339;DHT22;31071;51.478;5.710;2023-11-19T03:50:17;12.20;99.90
45339;DHT22;31071;51.478;5.710;2023-11-19T03:52:43;12.30;99.90
45339;DHT22;31071;51.478;5.710;2023-11-19T03:55:09;12.30;99.90
45339;DHT22;31071;51.478;5.710;2023-11-19T03:57:35;11.50;99.90
45339;DHT22;31071;51.478;5.710;2023-11-19T04:00:01;12.10;99.90
45339;DHT22;31071;51.478;5.710;2023-11-19T04:02:34;12.10;99.90
45339;DHT22;31071;51.478;5.710;2023-11-19T04:05:00;12.10;99.90
45339;DHT22;31071;51.478;5.710;2023-11-19T04:07:26;12.10;99.90
45339;DHT22;31071;51.478;5.710;2023-11-19T04:09:51;12.20;99.90
45339;DHT22;31071;51.478;5.710;2023-11-19T04:12:17;12.10;99.90
45339;DHT22;31071;51.478;5.710;2023-11-19T04:14:43;12.00;99.90
45339;DHT22;31071;51.478;5.710;2023-11-19T04:17:09;12.10;99.90
45339;DHT22;31071;51.478;5.710;2023-11-19T04:19:36;12.50;99.90
45339;DHT22;31071;51.478;5.710;2023-11-19T04:22:02;12.00;99.90
45339;DHT22;31071;51.478;5.710;2023-11-19T04:24:27;12.10;99.90
45339;DHT22;31071;51.478;5.710;2023-11-19T04:26:53;12.10;99.90
45339;DHT22;31071;51.478;5.710;2023-11-19T04:29:19;12.00;99.90
45339;DHT22;31071;51.478;5.710;2023-11-19T04:31:45;12.50;99.90
45339;DHT22;31071;51.478;5.710;2023-11-19T04:34:11;12.10;99.90
45339;DHT22;31071;51.478;5.710;2023-11-19T04:36:38;12.10;99.90
45339;DHT22;31071;51.478;5.710;2023-11-19T04:39:07;12.10;99.90
45339;DHT22;31071;51.478;5.710;2023-11-19T04:41:51;12.20;99.90
45339;DHT22;31071;51.478;5.710;2023-11-19T04:44:20;14.00;99.90
45339;DHT22;31071;51.478;5.710;2023-11-19T04:46:49;12.20;99.90
45339;DHT22;31071;51.478;5.710;2023-11-19T04:49:18;12.30;99.90
45339;DHT22;31071;51.478;5.710;2023-11-19T04:51:47;12.20;99.90
45339;DHT22;31071;51.478;5.710;2023-11-19T04:54:25;13.20;99.90
45339;DHT22;31071;51.478;5.710;2023-11-19T04:56:51;12.20;99.90
45339;DHT22;31071;51.478;5.710;2023-11-19T04:59:17;12.20;99.90
45339;DHT22;31071;51.478;5.710;2023-11-19T05:01:47;12.10;99.90
45339;DHT22;31071;51.478;5.710;2023-11-19T05:04:16;12.10;99.90
45339;DHT22;31071;51.478;5.710;2023-11-19T05:06:44;12.00;99.90
45339;DHT22;31071;51.478;5.710;2023-11-19T05:09:09;12.20;99.90
45339;DHT22;31071;51.478;5.710;2023-11-19T05:11:37;13.40;99.90
45339;DHT22;31071;51.478;5.710;2023-11-19T05:14:05;11.90;99.90
45339;DHT22;31071;51.478;5.710;2023-11-19T05:16:31;11.90;99.90
45339;DHT22;31071;51.478;5.710;2023-11-19T05:18:56;13.20;99.90
45339;DHT22;31071;51.478;5.710;2023-11-19T05:21:22;12.00;99.90
45339;DHT22;31071;51.478;5.710;2023-11-19T05:23:49;12.00;99.90
45339;DHT22;31071;51.478;5.710;2023-11-19T05:26:33;12.00;99.90
45339;DHT22;31071;51.478;5.710;2023-11-19T05:29:02;11.90;99.90
45339;DHT22;31071;51.478;5.710;2023-11-19T05:31:28;11.90;99.90
45339;DHT22;31071;51.478;5.710;2023-11-19T05:33:54;11.80;99.90
45339;DHT22;31071;51.478;5.710;2023-11-19T05:36:19;11.90;99.90
45339;DHT22;31071;51.478;5.710;2023-11-19T05:38:45;11.90;99.90
45339;DHT22;31071;51.478;5.710;2023-11-19T05:41:14;11.90;99.90
45339;DHT22;31071;51.478;5.710;2023-11-19T05:43:41;13.70;99.90
45339;DHT22;31071;51.478;5.710;2023-11-19T05:46:09;11.90;99.90
45339;DHT22;31071;51.478;5.710;2023-11-19T05:48:47;12.00;99.90
45339;DHT22;31071;51.478;5.710;2023-11-19T05:51:13;13.60;99.90
45339;DHT22;31071;51.478;5.710;2023-11-19T05:53:41;12.00;99.90
45339;DHT22;31071;51.478;5.710;2023-11-19T05:56:09;11.90;99.90
45339;DHT22;31071;51.478;5.710;2023-11-19T05:58:35;11.90;99.90
45339;DHT22;31071;51.478;5.710;2023-11-19T06:01:01;11.90;99.90
45339;DHT22;31071;51.478;5.710;2023-11-19T06:03:28;11.80;99.90
45339;DHT22;31071;51.478;5.710;2023-11-19T06:05:54;11.80;99.90
45339;DHT22;31071;51.478;5.710;2023-11-19T06:08:20;11.70;99.90
45339;DHT22;31071;51.478;5.710;2023-11-19T06:10:49;11.70;99.90
45339;DHT22;31071;51.478;5.710;2023-11-19T06:13:26;11.80;99.90
45339;DHT22;31071;51.478;5.710;2023-11-19T06:15:54;11.80;99.90
45339;DHT22;31071;51.478;5.710;2023-11-19T06:18:22;11.70;99.90
45339;DHT22;31071;51.478;5.710;2023-11-19T06:20:48;11.40;99.90
45339;DHT22;31071;51.478;5.710;2023-11-19T06:23:17;12.30;99.90
45339;DHT22;31071;51.478;5.710;2023-11-19T06:25:43;11.70;99.90
45339;DHT22;31071;51.478;5.710;2023-11-19T06:28:09;11.70;99.90
45339;DHT22;31071;51.478;5.710;2023-11-19T06:31:27;11.60;99.90
45339;DHT22;31071;51.478;5.710;2023-11-19T06:34:05;11.50;99.90
45339;DHT22;31071;51.478;5.710;2023-11-19T06:36:31;11.60;99.90
45339;DHT22;31071;51.478;5.710;2023-11-19T06:39:08;11.50;99.90
45339;DHT22;31071;51.478;5.710;2023-11-19T06:41:45;11.40;99.90
45339;DHT22;31071;51.478;5.710;2023-11-19T06:44:11;11.50;99.90
45339;DHT22;31071;51.478;5.710;2023-11-19T06:46:38;11.50;99.90
45339;DHT22;31071;51.478;5.710;2023-11-19T06:49:07;11.50;99.90
45339;DHT22;31071;51.478;5.710;2023-11-19T06:51:35;13.50;99.90
45339;DHT22;31071;51.478;5.710;2023-11-19T06:54:01;11.40;99.90
45339;DHT22;31071;51.478;5.710;2023-11-19T06:56:27;11.30;99.90
45339;DHT22;31071;51.478;5.710;2023-11-19T06:58:53;11.30;99.90
45339;DHT22;31071;51.478;5.710;2023-11-19T07:01:21;11.40;99.90
45339;DHT22;31071;51.478;5.710;2023-11-19T07:03:48;11.40;99.90
45339;DHT22;31071;51.478;5.710;2023-11-19T07:06:14;11.40;99.90
45339;DHT22;31071;51.478;5.710;2023-11-19T07:08:46;13.40;99.90
45339;DHT22;31071;51.478;5.710;2023-11-19T07:11:38;11.40;99.90
45339;DHT22;31071;51.478;5.710;2023-11-19T07:14:07;11.30;99.90
45339;DHT22;31071;51.478;5.710;2023-11-19T07:16:34;11.40;99.90
45339;DHT22;31071;51.478;5.710;2023-11-19T07:19:01;11.20;99.90
45339;DHT22;31071;51.478;5.710;2023-11-19T07:21:27;11.40;99.90
45339;DHT22;31071;51.478;5.710;2023-11-19T07:23:55;11.50;99.90
45339;DHT22;31071;51.478;5.710;2023-11-19T07:26:21;11.40;99.90
45339;DHT22;31071;51.478;5.710;2023-11-19T07:28:48;11.40;99.90
45339;DHT22;31071;51.478;5.710;2023-11-19T07:31:19;11.30;99.90
45339;DHT22;31071;51.478;5.710;2023-11-19T07:33:59;11.40;99.90
45339;DHT22;31071;51.478;5.710;2023-11-19T07:36:48;11.30;99.90
45339;DHT22;31071;51.478;5.710;2023-11-19T07:39:30;11.30;99.90
45339;DHT22;31071;51.478;5.710;2023-11-19T07:42:05;11.40;99.90
45339;DHT22;31071;51.478;5.710;2023-11-19T07:45:21;11.40;99.90
45339;DHT22;31071;51.478;5.710;2023-11-19T07:47:59;11.40;99.90
45339;DHT22;31071;51.478;5.710;2023-11-19T07:50:42;11.50;99.90
45339;DHT22;31071;51.478;5.710;2023-11-19T07:53:08;11.60;99.90
45339;DHT22;31071;51.478;5.710;2023-11-19T07:55:34;11.60;99.90
45339;DHT22;31071;51.478;5.710;2023-11-19T07:58:00;11.60;99.90
45339;DHT22;31071;51.478;5.710;2023-11-19T08:00:26;11.50;99.90
45339;DHT22;31071;51.478;5.710;2023-11-19T08:02:59;11.60;99.90
45339;DHT22;31071;51.478;5.710;2023-11-19T08:05:32;11.50;99.90
45339;DHT22;31071;51.478;5.710;2023-11-19T08:08:00;11.60;99.90
45339;DHT22;31071;51.478;5.710;2023-11-19T08:10:26;11.70;99.90
45339;DHT22;31071;51.478;5.710;2023-11-19T08:12:52;11.80;99.90
45339;DHT22;31071;51.478;5.710;2023-11-19T08:15:18;11.80;99.90
45339;DHT22;31071;51.478;5.710;2023-11-19T08:17:44;11.80;99.90
45339;DHT22;31071;51.478;5.710;2023-11-19T08:20:10;10.80;99.90
45339;DHT22;31071;51.478;5.710;2023-11-19T08:22:37;11.90;99.90
45339;DHT22;31071;51.478;5.710;2023-11-19T08:25:05;12.00;99.90
45339;DHT22;31071;51.478;5.710;2023-11-19T08:27:31;12.10;99.90
45339;DHT22;31071;51.478;5.710;2023-11-19T08:29:58;11.80;99.90
45339;DHT22;31071;51.478;5.710;2023-11-19T08:32:27;12.50;99.90
45339;DHT22;31071;51.478;5.710;2023-11-19T08:34:53;12.20;99.90
45339;DHT22;31071;51.478;5.710;2023-11-19T08:37:19;12.20;99.90
45339;DHT22;31071;51.478;5.710;2023-11-19T08:39:50;12.30;99.90
45339;DHT22;31071;51.478;5.710;2023-11-19T08:42:16;12.40;99.90
45339;DHT22;31071;51.478;5.710;2023-11-19T08:44:43;12.80;99.90
45339;DHT22;31071;51.478;5.710;2023-11-19T08:47:13;12.60;99.90
45339;DHT22;31071;51.478;5.710;2023-11-19T08:49:40;15.30;99.90
45339;DHT22;31071;51.478;5.710;2023-11-19T08:52:05;14.80;99.90
45339;DHT22;31071;51.478;5.710;2023-11-19T08:54:34;15.40;99.90
45339;DHT22;31071;51.478;5.710;2023-11-19T08:57:00;12.90;99.90
45339;DHT22;31071;51.478;5.710;2023-11-19T08:59:26;13.90;99.90
45339;DHT22;31071;51.478;5.710;2023-11-19T09:01:52;13.10;99.90
45339;DHT22;31071;51.478;5.710;2023-11-19T09:04:17;13.60;99.90
45339;DHT22;31071;51.478;5.710;2023-11-19T09:06:43;16.20;99.90
45339;DHT22;31071;51.478;5.710;2023-11-19T09:09:09;13.80;99.90
45339;DHT22;31071;51.478;5.710;2023-11-19T09:11:35;14.00;99.90
45339;DHT22;31071;51.478;5.710;2023-11-19T09:14:02;14.00;99.90
45339;DHT22;31071;51.478;5.710;2023-11-19T09:16:28;14.30;99.90
45339;DHT22;31071;51.478;5.710;2023-11-19T09:18:54;15.20;99.90
45339;DHT22;31071;51.478;5.710;2023-11-19T09:21:20;14.00;99.90
45339;DHT22;31071;51.478;5.710;2023-11-19T09:23:46;14.20;99.90
45339;DHT22;31071;51.478;5.710;2023-11-19T09:26:13;14.40;99.90
45339;DHT22;31071;51.478;5.710;2023-11-19T09:28:39;14.00;99.90
45339;DHT22;31071;51.478;5.710;2023-11-19T09:31:18;14.10;99.90
45339;DHT22;31071;51.478;5.710;2023-11-19T09:33:44;13.60;99.90
45339;DHT22;31071;51.478;5.710;2023-11-19T09:36:14;14.20;99.90
45339;DHT22;31071;51.478;5.710;2023-11-19T09:38:40;14.40;99.90
45339;DHT22;31071;51.478;5.710;2023-11-19T09:41:06;14.60;99.90
45339;DHT22;31071;51.478;5.710;2023-11-19T09:43:35;14.80;99.90
45339;DHT22;31071;51.478;5.710;2023-11-19T09:46:05;15.70;99.90
45339;DHT22;31071;51.478;5.710;2023-11-19T09:48:42;14.40;99.90
45339;DHT22;31071;51.478;5.710;2023-11-19T09:51:09;14.70;99.90
45339;DHT22;31071;51.478;5.710;2023-11-19T09:53:36;14.80;99.90
45339;DHT22;31071;51.478;5.710;2023-11-19T09:56:15;14.90;99.90
45339;DHT22;31071;51.478;5.710;2023-11-19T09:58:42;15.10;99.90
45339;DHT22;31071;51.478;5.710;2023-11-19T10:01:11;15.20;99.90
45339;DHT22;31071;51.478;5.710;2023-11-19T10:03:41;14.80;99.90
45339;DHT22;31071;51.478;5.710;2023-11-19T10:06:10;14.80;99.90
45339;DHT22;31071;51.478;5.710;2023-11-19T10:08:43;14.60;99.90
45339;DHT22;31071;51.478;5.710;2023-11-19T10:11:09;14.80;99.90
45339;DHT22;31071;51.478;5.710;2023-11-19T10:13:39;15.00;99.90
45339;DHT22;31071;51.478;5.710;2023-11-19T10:16:08;15.30;99.90
45339;DHT22;31071;51.478;5.710;2023-11-19T10:18:35;14.90;99.90
45339;DHT22;31071;51.478;5.710;2023-11-19T10:21:05;14.90;99.90
45339;DHT22;31071;51.478;5.710;2023-11-19T10:23:57;14.80;99.90
45339;DHT22;31071;51.478;5.710;2023-11-19T10:26:26;15.00;99.90
45339;DHT22;31071;51.478;5.710;2023-11-19T10:28:52;15.00;99.90
45339;DHT22;31071;51.478;5.710;2023-11-19T10:31:36;15.50;99.90
45339;DHT22;31071;51.478;5.710;2023-11-19T10:34:02;15.70;99.90
45339;DHT22;31071;51.478;5.710;2023-11-19T10:36:39;15.20;99.90
45339;DHT22;31071;51.478;5.710;2023-11-19T10:39:07;15.40;99.90
45339;DHT22;31071;51.478;5.710;2023-11-19T10:41:34;15.40;99.90
45339;DHT22;31071;51.478;5.710;2023-11-19T10:47:06;14.20;99.90
45339;DHT22;31071;51.478;5.710;2023-11-19T10:49:54;14.20;99.90
45339;DHT22;31071;51.478;5.710;2023-11-19T10:52:21;14.30;99.90
45339;DHT22;31071;51.478;5.710;2023-11-19T10:54:51;15.50;99.90
45339;DHT22;31071;51.478;5.710;2023-11-19T10:57:21;14.60;99.90
45339;DHT22;31071;51.478;5.710;2023-11-19T10:59:52;15.10;99.90
45339;DHT22;31071;51.478;5.710;2023-11-19T11:02:42;15.10;99.90
45339;DHT22;31071;51.478;5.710;2023-11-19T11:05:14;15.10;99.90
45339;DHT22;31071;51.478;5.710;2023-11-19T11:07:40;14.70;99.90
45339;DHT22;31071;51.478;5.710;2023-11-19T11:10:09;14.80;99.90
45339;DHT22;31071;51.478;5.710;2023-11-19T11:12:37;14.50;99.90
45339;DHT22;31071;51.478;5.710;2023-11-19T11:15:06;16.60;99.90
45339;DHT22;31071;51.478;5.710;2023-11-19T11:17:33;14.20;99.90
45339;DHT22;31071;51.478;5.710;2023-11-19T11:19:59;16.70;99.90
45339;DHT22;31071;51.478;5.710;2023-11-19T11:25:23;13.90;99.90
45339;DHT22;31071;51.478;5.710;2023-11-19T11:30:55;14.00;99.90
45339;DHT22;31071;51.478;5.710;2023-11-19T11:33:59;13.90;99.90
45339;DHT22;31071;51.478;5.710;2023-11-19T11:36:29;13.70;99.90
45339;DHT22;31071;51.478;5.710;2023-11-19T11:38:58;16.40;99.90
45339;DHT22;31071;51.478;5.710;2023-11-19T11:41:26;13.60;99.90
45339;DHT22;31071;51.478;5.710;2023-11-19T11:43:53;13.40;99.90
45339;DHT22;31071;51.478;5.710;2023-11-19T11:49:02;13.20;99.90
45339;DHT22;31071;51.478;5.710;2023-11-19T11:57:08;13.20;99.90
45339;DHT22;31071;51.478;5.710;2023-11-19T11:59:48;12.90;99.90
45339;DHT22;31071;51.478;5.710;2023-11-19T12:02:16;12.90;99.90
45339;DHT22;31071;51.478;5.710;2023-11-19T12:04:46;13.00;99.90
45339;DHT22;31071;51.478;5.710;2023-11-19T12:07:13;13.20;99.90
45339;DHT22;31071;51.478;5.710;2023-11-19T12:09:47;15.10;99.90
45339;DHT22;31071;51.478;5.710;2023-11-19T12:12:22;13.40;99.90
45339;DHT22;31071;51.478;5.710;2023-11-19T12:15:07;13.70;99.90
45339;DHT22;31071;51.478;5.710;2023-11-19T12:17:49;13.80;99.90
45339;DHT22;31071;51.478;5.710;2023-11-19T12:20:16;13.90;99.90
45339;DHT22;31071;51.478;5.710;2023-11-19T12:22:44;13.90;99.90
45339;DHT22;31071;51.478;5.710;2023-11-19T12:25:22;13.80;99.90
45339;DHT22;31071;51.478;5.710;2023-11-19T12:27:51;13.80;99.90
45339;DHT22;31071;51.478;5.710;2023-11-19T12:30:24;13.90;99.90
45339;DHT22;31071;51.478;5.710;2023-11-19T12:32:55;14.10;99.90
45339;DHT22;31071;51.478;5.710;2023-11-19T12:35:22;14.10;99.90
45339;DHT22;31071;51.478;5.710;2023-11-19T12:38:33;14.80;99.90
45339;DHT22;31071;51.478;5.710;2023-11-19T12:44:31;13.50;99.90
45339;DHT22;31071;51.478;5.710;2023-11-19T12:47:06;14.60;99.90
45339;DHT22;31071;51.478;5.710;2023-11-19T12:49:33;14.80;99.90
45339;DHT22;31071;51.478;5.710;2023-11-19T12:58:35;14.40;99.90
45339;DHT22;31071;51.478;5.710;2023-11-19T13:01:06;14.00;99.90
45339;DHT22;31071;51.478;5.710;2023-11-19T13:03:33;13.90;99.90
45339;DHT22;31071;51.478;5.710;2023-11-19T13:06:06;13.80;99.90
45339;DHT22;31071;51.478;5.710;2023-11-19T13:08:41;13.70;99.90
45339;DHT22;31071;51.478;5.710;2023-11-19T13:14:38;15.30;99.90
45339;DHT22;31071;51.478;5.710;2023-11-19T13:17:34;13.50;99.90
45339;DHT22;31071;51.478;5.710;2023-11-19T13:20:00;13.40;99.90
45339;DHT22;31071;51.478;5.710;2023-11-19T13:22:25;13.30;99.90
45339;DHT22;31071;51.478;5.710;2023-11-19T13:24:51;14.20;99.90
45339;DHT22;31071;51.478;5.710;2023-11-19T13:27:20;13.10;99.90
45339;DHT22;31071;51.478;5.710;2023-11-19T13:29:48;12.80;99.90
45339;DHT22;31071;51.478;5.710;2023-11-19T13:32:14;12.50;99.90
45339;DHT22;31071;51.478;5.710;2023-11-19T13:34:39;13.80;99.90
45339;DHT22;31071;51.478;5.710;2023-11-19T13:37:05;13.20;99.90
45339;DHT22;31071;51.478;5.710;2023-11-19T13:39:31;12.60;99.90
45339;DHT22;31071;51.478;5.710;2023-11-19T13:41:57;13.00;99.90
45339;DHT22;31071;51.478;5.710;2023-11-19T13:44:23;15.00;99.90
45339;DHT22;31071;51.478;5.710;2023-11-19T13:47:03;13.70;99.90
45339;DHT22;31071;51.478;5.710;2023-11-19T13:53:46;13.60;99.90
45339;DHT22;31071;51.478;5.710;2023-11-19T13:56:50;13.30;99.90
45339;DHT22;31071;51.478;5.710;2023-11-19T13:59:51;13.00;99.90
45339;DHT22;31071;51.478;5.710;2023-11-19T14:02:29;12.70;99.90
45339;DHT22;31071;51.478;5.710;2023-11-19T14:12:44;12.80;99.90
45339;DHT22;31071;51.478;5.710;2023-11-19T14:15:10;12.70;99.90
45339;DHT22;31071;51.478;5.710;2023-11-19T14:17:38;12.70;99.90
45339;DHT22;31071;51.478;5.710;2023-11-19T14:20:11;12.60;99.90
45339;DHT22;31071;51.478;5.710;2023-11-19T14:22:41;12.50;99.90
45339;DHT22;31071;51.478;5.710;2023-11-19T14:25:11;12.60;99.90
45339;DHT22;31071;51.478;5.710;2023-11-19T14:27:41;11.10;99.90
45339;DHT22;31071;51.478;5.710;2023-11-19T14:30:08;13.50;99.90
45339;DHT22;31071;51.478;5.710;2023-11-19T14:32:36;12.40;99.90
45339;DHT22;31071;51.478;5.710;2023-11-19T14:35:03;12.40;99.90
45339;DHT22;31071;51.478;5.710;2023-11-19T14:37:30;12.40;99.90
45339;DHT22;31071;51.478;5.710;2023-11-19T14:40:01;12.30;99.90
45339;DHT22;31071;51.478;5.710;2023-11-19T14:42:39;12.20;99.90
45339;DHT22;31071;51.478;5.710;2023-11-19T14:45:11;12.20;99.90
45339;DHT22;31071;51.478;5.710;2023-11-19T14:47:55;12.30;99.90
45339;DHT22;31071;51.478;5.710;2023-11-19T14:50:26;12.20;99.90
45339;DHT22;31071;51.478;5.710;2023-11-19T14:52:52;12.40;99.90
45339;DHT22;31071;51.478;5.710;2023-11-19T14:55:17;12.10;99.90
45339;DHT22;31071;51.478;5.710;2023-11-19T14:57:43;12.70;99.90
45339;DHT22;31071;51.478;5.710;2023-11-19T15:00:10;12.20;99.90
45339;DHT22;31071;51.478;5.710;2023-11-19T15:02:57;12.20;99.90
45339;DHT22;31071;51.478;5.710;2023-11-19T15:05:37;12.10;99.90
45339;DHT22;31071;51.478;5.710;2023-11-19T15:08:09;12.10;99.90
45339;DHT22;31071;51.478;5.710;2023-11-19T15:10:53;12.10;99.90
45339;DHT22;31071;51.478;5.710;2023-11-19T15:17:09;11.90;99.90
45339;DHT22;31071;51.478;5.710;2023-11-19T15:23:08;11.60;99.90
45339;DHT22;31071;51.478;5.710;2023-11-19T15:28:23;11.50;99.90
45339;DHT22;31071;51.478;5.710;2023-11-19T15:30:55;11.50;99.90
45339;DHT22;31071;51.478;5.710;2023-11-19T15:33:30;11.50;99.90
45339;DHT22;31071;51.478;5.710;2023-11-19T15:35:58;11.40;99.90
45339;DHT22;31071;51.478;5.710;2023-11-19T15:38:40;11.40;99.90
45339;DHT22;31071;51.478;5.710;2023-11-19T15:41:32;11.40;99.90
45339;DHT22;31071;51.478;5.710;2023-11-19T15:43:58;11.40;99.90
45339;DHT22;31071;51.478;5.710;2023-11-19T15:46:24;11.40;99.90
45339;DHT22;31071;51.478;5.710;2023-11-19T15:48:49;11.40;99.90
45339;DHT22;31071;51.478;5.710;2023-11-19T15:51:15;11.50;99.90
45339;DHT22;31071;51.478;5.710;2023-11-19T15:53:42;11.40;99.90
45339;DHT22;31071;51.478;5.710;2023-11-19T15:56:08;11.30;99.90
45339;DHT22;31071;51.478;5.710;2023-11-19T15:58:35;11.40;99.90
45339;DHT22;31071;51.478;5.710;2023-11-19T16:01:02;11.30;99.90
45339;DHT22;31071;51.478;5.710;2023-11-19T16:03:27;11.30;99.90
45339;DHT22;31071;51.478;5.710;2023-11-19T16:05:55;11.30;99.90
45339;DHT22;31071;51.478;5.710;2023-11-19T16:08:21;11.30;99.90
45339;DHT22;31071;51.478;5.710;2023-11-19T16:10:47;11.30;99.90
45339;DHT22;31071;51.478;5.710;2023-11-19T16:13:15;11.40;99.90
45339;DHT22;31071;51.478;5.710;2023-11-19T16:15:43;11.40;99.90
45339;DHT22;31071;51.478;5.710;2023-11-19T16:18:37;11.40;99.90
45339;DHT22;31071;51.478;5.710;2023-11-19T16:21:14;11.50;99.90
45339;DHT22;31071;51.478;5.710;2023-11-19T16:24:07;11.60;99.90
45339;DHT22;31071;51.478;5.710;2023-11-19T16:27:30;11.60;99.90
45339;DHT22;31071;51.478;5.710;2023-11-19T16:30:11;11.60;99.90
45339;DHT22;31071;51.478;5.710;2023-11-19T16:32:52;11.50;99.90
45339;DHT22;31071;51.478;5.710;2023-11-19T16:35:26;11.50;99.90
45339;DHT22;31071;51.478;5.710;2023-11-19T16:38:19;11.40;99.90
45339;DHT22;31071;51.478;5.710;2023-11-19T16:48:09;11.30;99.90